Welcome to La Porte Aviation Services!

An aviation adventure awaits

Current Weather Conditions

Available data for KPPO from the past 2 hours
LA PORTE, IN
Metar
KPPO 211835Z AUTO 27013G17KT 10SM OVC021 11/06 A2990 RMK AO2 T01050064

18:35 UTC

Wind: 270° 13kt

Visibility: 10 SM

Sky: OVC 2100 ft

Temp: 11 deg C / 51.8 deg F

Dewpoint: 6 deg C / 42.8 deg F

Pressure: 29.9 inHg

Pireps (15)
ARR UA /OV ARR/TM 1830/FL020/TP PC12/SK OVC015/RM DURC RWY 27
ORD UA /OV OLK/TM 1818/FL200/TP CRJ9/TB CONS LGT OCNL MOD CHOP
ORD UA /OV FWA265025/TM 1815/FL200/TP CRJ9/TB LGT-MOD CHOP
ORD UA /OV GIJ/TM 1813/FL280/TP B737/TB CONS LGT CHOP
MDW UA /OV KMDW137004/TM 1813/FL022/TP B738/SK OVC022-TOPUNKN/RM DURD RY31C
LAF UA /OV KLAF135008/TM 1812/FL030/TP P28A/SK BKN030
MKE UA /OV UGN270005/TM 1800/FL6000/TP P28A/SK BTWN LAYERS/TA 07/TB SMOOTH
LAF UA /OV KLAF/TM 1754/FL016/TP P28A/WV 25020/TB LGT CHOP
ORD UA /OV JOT090020/TM 1746/FL350/TP B739/TB CONS LGT CHOP OCNL MOD CHOP
ENW UA /OV ENW/TM 1734/FL1300/TP C550/L/RM BASES 500AGL
FWA UA /OV FWA/TM 1733/FL030/TP CRJ7/RM +5 -10KTS ON FINAL
IND UA /OV VHP360026/TM 1715/FL035/TP LJ45/SK 034 OVC 047
ORD UA /OV IKK/TM 1657/FL225/TP B737/TB OCNL MOD CHOP/RM DURC
ORD UA /OV GSH180010/TM 1656/FL250/TP A319/TB MOD CHOP
ORD UA /OV OXI360020/TM 1653/FL360/TP CL60/TB OCNL LGT

Connect with us on Facebook!

Facebook By Weblizar Powered By Weblizar